• Join FlightAware (Why Join?)
  • Login
  • US Flag 
06:17AM EDT


 

Airport Tracker/Info


-or-


 

Live Flight TrackerFlight Track Log ✈ C-GEDA ✈ 03-May-2013 ✈ CYEG - CFS5

Flight Track Log - Related Links

Times and Time Zones

All times are in EDT time to prevent confusion due to time zone crossing. See the C-GEDA flight status page for this flight to view local times or setup timezone preferences in your user account.

Time Position Orientation Groundspeed Altitude Reporting Facility
EDT Latitude Longitude Course Direction KTS MPH feet Rate Location/Type
01:44PM 53.3000 -113.6167 307° West 50 58 2,400  Level Edmonton Center
01:45PM 53.3333 -113.5833 31° Northeast 130 150 3,400 840 Climbing Edmonton Center
01:46PM 53.3667 -113.6333 318° Northwest 150 173 4,100 780 Climbing Edmonton Center
01:47PM 53.3667 -113.6833 270° West 150 173 5,000 660 Climbing Edmonton Center
01:50PM 53.4786 -113.9185 307° West  Level FlightAware Approximate
01:53PM 53.5720 -113.9550 270° West 151 174 9,000  Level FlightAware
01:53PM 53.5870 -113.9830 312° West 152 175 9,100 60 Climbing FlightAware
01:54PM 53.5990 -114.0050 313° West 152 175 9,100  Level FlightAware
01:54PM 53.6110 -114.0280 311° West 152 175 9,100  Level FlightAware
01:55PM 53.6230 -114.0500 313° West 152 175 9,100 1,080 Level FlightAware
01:57PM 53.6820 -114.1630 311° West 166 191 11,700 1,020 Climbing FlightAware
01:57PM 53.7020 -114.1990 313° West 166 191 11,700  Level FlightAware
01:58PM 53.7230 -114.2380 312° West 166 191 11,700  Level FlightAware
01:59PM 53.7400 -114.2710 311° West 166 191 11,700 120 Level FlightAware
02:00PM 53.7667 -114.3667 311° West 170 196 12,000 120 Climbing Edmonton Center
02:01PM 53.7833 -114.4333 293° West 170 196 12,000  Level Edmonton Center
02:02PM 53.8167 -114.5000 310° West 170 196 12,000  Level Edmonton Center
02:03PM 53.8500 -114.5667 310° West 180 207 12,000  Level Edmonton Center
02:04PM 53.8833 -114.6333 310° West 180 207 12,000  Level Edmonton Center
02:05PM 53.9167 -114.7000 310° West 180 207 12,000  Level Edmonton Center
02:06PM 53.9500 -114.7667 310° West 180 207 12,000  Level Edmonton Center
02:07PM 53.9833 -114.8333 310° West 180 207 12,000  Level Edmonton Center
02:08PM 54.0167 -114.9000 310° West 180 207 12,000  Level Edmonton Center
02:09PM 54.0333 -114.9667 293° West 180 207 12,000  Level Edmonton Center
02:10PM 54.0667 -115.0333 310° West 180 207 12,000  Level Edmonton Center
02:11PM 54.1167 -115.1000 322° Northwest 180 207 12,000  Level Edmonton Center
02:12PM 54.1333 -115.1667 293° West 180 207 12,000  Level Edmonton Center
02:13PM 54.1667 -115.2500 304° West 180 207 12,000  Level Edmonton Center
02:14PM 54.2000 -115.3167 311° West 180 207 12,000  Level Edmonton Center
02:15PM 54.2333 -115.4000 304° West 180 207 12,000  Level Edmonton Center
02:16PM 54.2667 -115.4667 311° West 180 207 12,000  Level Edmonton Center
02:17PM 54.3000 -115.5333 311° West 180 207 12,000  Level Edmonton Center
02:18PM 54.3167 -115.5833 300° West 180 207 12,000  Level Edmonton Center
02:19PM 54.3500 -115.6500 311° West 180 207 12,000  Level Edmonton Center
02:20PM 54.3833 -115.7167 311° West 180 207 12,000  Level Edmonton Center
02:21PM 54.4167 -115.8000 305° West 180 207 12,000  Level Edmonton Center
02:22PM 54.4500 -115.8667 311° West 180 207 12,000  Level Edmonton Center
02:23PM 54.4833 -115.9000 330° Northwest 170 196 12,000  Level Edmonton Center
02:24PM 54.5000 -116.0000 286° West 170 196 12,100  Climbing Edmonton Center
02:25PM 54.5333 -116.0333 330° Northwest 170 196 12,100  Level Edmonton Center
02:26PM 54.5667 -116.1000 311° West 170 196 12,100  Level Edmonton Center
02:27PM 54.6000 -116.1667 311° West 170 196 12,100  Level Edmonton Center
02:28PM 54.6167 -116.2333 293° West 170 196 12,100  Level Edmonton Center
02:29PM 54.6667 -116.3000 322° Northwest 160 184 12,100  Level Edmonton Center
02:30PM 54.6833 -116.3667 293° West 170 196 12,100  Level Edmonton Center
02:31PM 54.7167 -116.4333 311° West 170 196 12,100  Level Edmonton Center
02:32PM 54.7333 -116.5000 293° West 170 196 12,100  Level Edmonton Center
02:33PM 54.7833 -116.5833 316° Northwest 170 196 12,100  Level Edmonton Center
02:34PM 54.8000 -116.6167 311° West 170 196 12,100  Level Edmonton Center
02:35PM 54.8333 -116.6833 311° West 170 196 12,100 -300 Level Edmonton Center
02:36PM 54.8667 -116.7500 311° West 170 196 11,500 -600 Descending Edmonton Center
02:37PM 54.8833 -116.8500 286° West 190 219 10,900 -720 Descending Edmonton Center
02:38PM 54.9333 -116.8833 339° North 200 230 10,100 -840 Descending Edmonton Center
02:39PM 54.9833 -116.9667 316° Northwest 210 242 9,300 -900 Descending Edmonton Center
02:40PM 55.0167 -117.0167 319° Northwest 190 219 8,400 -900 Descending Edmonton Center
02:41PM 55.0667 -117.0833 323° Northwest 190 219 7,600 -780 Descending Edmonton Center
02:42PM 55.1167 -117.1333 330° Northwest 200 230 6,900 -600 Descending Edmonton Center
02:43PM 55.1500 -117.2000 311° West 180 207 6,500 -420 Descending Edmonton Center
02:44PM 55.1833 -117.2333 330° Northwest 180 207 6,100 -420 Descending Edmonton Center
02:45PM 55.2333 -117.2833 330° Northwest 180 207 5,700 -420 Descending Edmonton Center
02:46PM 55.2667 -117.3500 311° West 170 196 5,300 -420 Descending Edmonton Center
02:47PM 55.3167 -117.4000 330° Northwest 170 196 4,900 -420 Descending Edmonton Center
02:48PM 55.3333 -117.4333 311° West 180 207 4,500 -240 Descending Edmonton Center
02:49PM 55.3833 -117.5167 317° Northwest 170 196 4,500  Level Edmonton Center
02:50PM 55.4167 -117.5500 330° Northwest 160 184 4,500  Level Edmonton Center
02:51PM 55.4667 -117.6000 330° Northwest 160 184 4,500  Level Edmonton Center
02:52PM 55.4833 -117.6500 300° West 170 196 4,500  Level Edmonton Center
02:53PM 55.5333 -117.6833 339° North 170 196 4,500  Level Edmonton Center
02:54PM 55.5667 -117.7500 312° West 160 184 4,500  Level Edmonton Center
02:55PM 55.6000 -117.8000 320° Northwest 170 196 4,500  Level Edmonton Center
02:56PM 55.6333 -117.8500 320° Northwest 160 184 4,500  Level Edmonton Center
02:57PM 55.6500 -117.9167 294° West 160 184 4,500  Level Edmonton Center
02:58PM 55.6333 -118.0000 251° West 160 184 4,500  Level Edmonton Center
02:59PM 55.6667 -118.0667 312° West 170 196 4,500  Level Edmonton Center
03:00PM 55.6667 -118.1667 270° West 170 196 4,500 -300 Level Edmonton Center
03:01PM 55.6833 -118.2500 290° West 170 196 3,900 -480 Descending Edmonton Center
03:02PM 55.6833 -118.3167 270° West 180 207 3,600 -300 Descending Edmonton Center
03:04PM 55.7069 -118.4373 289° West  Level FlightAware Approximate
03:11PM 55.7833 -118.8333 286° West  Level FlightAware Approximate
03:12PM 55.7833 -118.8333 286° West  Level FlightAware Approximate
03:13PM 55.7833 -118.8333 286° West  Level FlightAware Approximate
03:14PM 55.7833 -118.8333 286° West  Level FlightAware Approximate
03:15PM 55.7833 -118.8333 286° West  Level FlightAware Approximate
03:16PM 55.7833 -118.8333 286° West  Level FlightAware Approximate
03:17PM 55.7833 -118.8333 286° West  Level FlightAware Approximate
03:18PM 55.7833 -118.8333 286° West  Level FlightAware Approximate
03:19PM 55.7833 -118.8333 286° West  Level FlightAware Approximate
03:20PM 55.7833 -118.8333 286° West  Level FlightAware Approximate
03:21PM 55.7833 -118.8333 286° West  Level FlightAware Approximate
03:22PM 55.7833 -118.8333 286° West  Level FlightAware Approximate